Time;durP1;ratioP1;P1;durP2;ratioP2;P2;SDS_P1;SDS_P2;PMS_P1;PMS_P2;Temp;Humidity;BMP_temperature;BMP_pressure;BME280_temperature;BME280_humidity;BME280_pressure;Samples;Min_cycle;Max_cycle;Signal;HPM_P1;HPM_P2
2021/12/24 00:00:04;;;;;;;;;;;1.90;99.90;;;;;;5028247;28;20346;-80
2021/12/24 00:02:31;;;;;;;;;;;1.90;99.90;;;;;;5026198;28;19933;-80
2021/12/24 00:04:58;;;;;;;;;;;1.90;99.90;;;;;;5014505;28;19928;-80
2021/12/24 00:07:26;;;;;;;;;;;1.90;99.90;;;;;;5027378;28;19929;-79
2021/12/24 00:09:53;;;;;;;;;;;1.90;99.90;;;;;;5028353;28;19929;-80
2021/12/24 00:12:23;;;;;;;;;;;1.90;99.90;;;;;;5026375;28;19925;-80
2021/12/24 00:14:53;;;;;;;;;;;1.90;99.90;;;;;;5004327;28;20503;-79
2021/12/24 00:17:26;;;;;;;;;;;1.90;99.90;;;;;;5026460;28;20020;-80
2021/12/24 00:20:08;;;;;;;;;;;1.90;99.90;;;;;;5010163;28;19935;-79
2021/12/24 00:36:33;;;;;;;;;;;1.90;99.90;;;;;;5020637;28;19932;-80
2021/12/24 00:39:01;;;;;;;;;;;1.90;99.90;;;;;;5008194;28;20414;-79
2021/12/24 00:41:28;;;;;;;;;;;1.90;99.90;;;;;;5024571;28;19926;-80
2021/12/24 00:43:55;;;;;;;;;;;1.90;99.90;;;;;;5007605;28;19925;-80
2021/12/24 00:46:22;;;;;;;;;;;1.90;99.90;;;;;;5011072;28;19929;-79
2021/12/24 00:48:49;;;;;;;;;;;1.90;99.90;;;;;;5021418;28;19933;-79
2021/12/24 00:51:24;;;;;;;;;;;1.90;99.90;;;;;;5010669;28;19925;-80
2021/12/24 00:56:36;;;;;;;;;;;1.90;99.90;;;;;;5022399;28;20082;-80
2021/12/24 00:59:03;;;;;;;;;;;1.90;99.90;;;;;;5024058;28;19933;-79
2021/12/24 01:01:30;;;;;;;;;;;1.90;99.90;;;;;;5008968;28;19959;-79
2021/12/24 01:03:57;;;;;;;;;;;1.90;99.90;;;;;;5008031;28;19929;-80
2021/12/24 01:06:24;;;;;;;;;;;1.90;99.90;;;;;;5007601;28;19929;-79
2021/12/24 01:08:51;;;;;;;;;;;1.90;99.90;;;;;;5025722;28;19932;-79
2021/12/24 01:11:18;;;;;;;;;;;2.00;99.90;;;;;;5028198;28;20045;-80
2021/12/24 01:13:47;;;;;;;;;;;2.00;99.90;;;;;;5025967;28;19925;-80
2021/12/24 01:16:21;;;;;;;;;;;2.00;99.90;;;;;;5025260;28;19936;-79
2021/12/24 01:18:57;;;;;;;;;;;2.00;99.90;;;;;;5006648;28;19973;-80
2021/12/24 01:21:39;;;;;;;;;;;2.00;99.90;;;;;;5007586;28;19933;-79
2021/12/24 01:24:11;;;;;;;;;;;2.10;99.90;;;;;;5010410;28;20362;-80
2021/12/24 01:26:45;;;;;;;;;;;2.00;99.90;;;;;;5023124;28;20023;-79
2021/12/24 01:40:23;;;;;;;;;;;2.10;99.90;;;;;;5008443;28;20085;-80
2021/12/24 01:42:50;;;;;;;;;;;2.10;99.90;;;;;;5024497;28;19931;-79
2021/12/24 01:45:23;;;;;;;;;;;2.10;99.90;;;;;;5011121;28;19929;-80
2021/12/24 01:47:51;;;;;;;;;;;2.20;99.90;;;;;;5010707;28;19926;-80
2021/12/24 01:50:20;;;;;;;;;;;2.20;99.90;;;;;;5012133;28;20342;-79
2021/12/24 01:52:50;;;;;;;;;;;2.20;99.90;;;;;;5023251;28;20330;-79
2021/12/24 01:55:18;;;;;;;;;;;2.20;99.90;;;;;;5004318;28;20346;-79
2021/12/24 01:57:45;;;;;;;;;;;2.30;99.90;;;;;;5025747;28;20294;-79
2021/12/24 02:00:13;;;;;;;;;;;2.30;99.90;;;;;;5012753;28;19925;-79
2021/12/24 02:02:42;;;;;;;;;;;2.30;99.90;;;;;;5025654;28;19933;-80
2021/12/24 02:05:09;;;;;;;;;;;2.30;99.90;;;;;;5024209;28;20387;-80
2021/12/24 02:07:38;;;;;;;;;;;2.30;99.90;;;;;;5023843;28;19926;-79
2021/12/24 02:10:05;;;;;;;;;;;2.40;99.90;;;;;;5011909;28;19931;-80
2021/12/24 02:12:34;;;;;;;;;;;2.30;99.90;;;;;;5006784;28;19937;-79
2021/12/24 02:15:03;;;;;;;;;;;2.30;99.90;;;;;;5004448;28;19987;-80
2021/12/24 02:17:49;;;;;;;;;;;2.40;99.90;;;;;;5012069;28;20276;-80
2021/12/24 02:28:38;;;;;;;;;;;2.40;99.90;;;;;;5027084;28;19925;-80
2021/12/24 02:31:06;;;;;;;;;;;2.40;99.90;;;;;;5004037;28;19941;-79
2021/12/24 02:33:33;;;;;;;;;;;2.40;99.90;;;;;;5009408;28;19933;-80
2021/12/24 02:36:02;;;;;;;;;;;2.40;99.90;;;;;;5023280;28;20016;-80
2021/12/24 02:38:29;;;;;;;;;;;2.40;99.90;;;;;;5008708;28;19983;-80
2021/12/24 02:40:59;;;;;;;;;;;2.40;99.90;;;;;;5016958;28;20447;-80
2021/12/24 02:43:26;;;;;;;;;;;2.40;99.90;;;;;;5005047;28;20280;-79
2021/12/24 02:45:57;;;;;;;;;;;2.50;99.90;;;;;;5021801;28;19930;-79
2021/12/24 02:48:57;;;;;;;;;;;2.40;99.90;;;;;;5010287;28;19930;-79
2021/12/24 02:54:11;;;;;;;;;;;2.40;99.90;;;;;;5009280;28;19933;-80
2021/12/24 02:56:40;;;;;;;;;;;2.40;99.90;;;;;;5023944;28;19933;-80
2021/12/24 02:59:10;;;;;;;;;;;2.40;99.90;;;;;;5023296;28;19933;-80
2021/12/24 03:01:39;;;;;;;;;;;2.40;99.90;;;;;;5020316;28;19925;-80
2021/12/24 03:04:06;;;;;;;;;;;2.40;99.90;;;;;;5027788;28;20419;-80
2021/12/24 03:09:08;;;;;;;;;;;2.30;99.90;;;;;;4998364;28;20383;-80
2021/12/24 03:11:35;;;;;;;;;;;2.40;99.90;;;;;;5013895;28;20402;-80
2021/12/24 03:14:03;;;;;;;;;;;2.40;99.90;;;;;;5012391;28;19936;-79
2021/12/24 03:16:30;;;;;;;;;;;2.40;99.90;;;;;;4987140;28;19925;-80
2021/12/24 03:18:57;;;;;;;;;;;2.40;99.90;;;;;;5012634;28;19932;-80
2021/12/24 03:21:29;;;;;;;;;;;2.50;99.90;;;;;;5008385;28;19976;-80
2021/12/24 03:26:45;;;;;;;;;;;2.50;99.90;;;;;;5011287;28;19929;-80
2021/12/24 03:29:12;;;;;;;;;;;2.50;99.90;;;;;;4988291;28;19996;-80
2021/12/24 03:31:40;;;;;;;;;;;2.60;99.90;;;;;;4991163;28;19933;-80
2021/12/24 03:34:07;;;;;;;;;;;2.50;99.90;;;;;;4999687;28;19925;-80
2021/12/24 03:36:34;;;;;;;;;;;2.60;99.90;;;;;;5011256;28;19972;-80
2021/12/24 03:39:01;;;;;;;;;;;2.60;99.90;;;;;;5008549;28;19933;-80
2021/12/24 03:41:28;;;;;;;;;;;2.60;99.90;;;;;;4996596;28;19932;-80
2021/12/24 03:43:57;;;;;;;;;;;2.60;99.90;;;;;;5007164;28;20035;-79
2021/12/24 03:46:32;;;;;;;;;;;2.60;99.90;;;;;;4994078;28;19933;-79
2021/12/24 03:49:03;;;;;;;;;;;2.60;99.90;;;;;;4993268;28;19933;-80
2021/12/24 03:51:41;;;;;;;;;;;2.60;99.90;;;;;;4989961;28;20459;-80
2021/12/24 03:56:54;;;;;;;;;;;2.70;99.90;;;;;;5006949;28;19944;-79
2021/12/24 03:59:42;;;;;;;;;;;2.70;99.90;;;;;;4977692;28;19932;-80
2021/12/24 04:02:28;;;;;;;;;;;2.70;99.90;;;;;;5007359;28;20019;-80
2021/12/24 04:05:01;;;;;;;;;;;2.70;99.90;;;;;;5011195;28;20008;-80
2021/12/24 04:07:47;;;;;;;;;;;2.70;99.90;;;;;;5005329;28;20072;-80
2021/12/24 04:10:38;;;;;;;;;;;2.70;99.90;;;;;;4985164;28;19961;-80
2021/12/24 04:13:41;;;;;;;;;;;2.80;99.90;;;;;;4996506;28;20027;-80
2021/12/24 04:16:10;;;;;;;;;;;2.80;99.90;;;;;;4986034;28;19929;-80
2021/12/24 04:18:53;;;;;;;;;;;2.80;99.90;;;;;;4989131;28;19932;-80
2021/12/24 04:26:49;;;;;;;;;;;2.80;99.90;;;;;;5003990;28;19937;-80
2021/12/24 04:29:16;;;;;;;;;;;2.80;99.90;;;;;;4989048;28;19935;-80
2021/12/24 04:31:53;;;;;;;;;;;2.80;99.90;;;;;;4989598;28;19989;-80
2021/12/24 04:34:44;;;;;;;;;;;2.90;99.90;;;;;;4994788;28;19940;-80
2021/12/24 04:51:16;;;;;;;;;;;2.90;99.90;;;;;;5002982;28;20055;-80
2021/12/24 05:02:13;;;;;;;;;;;2.90;99.90;;;;;;4981451;28;20306;-80
2021/12/24 05:04:51;;;;;;;;;;;2.90;99.90;;;;;;5004382;28;19929;-80
2021/12/24 05:07:47;;;;;;;;;;;2.90;99.90;;;;;;5001479;28;19925;-80
2021/12/24 05:10:15;;;;;;;;;;;2.90;99.90;;;;;;5000994;28;20016;-80
2021/12/24 05:12:43;;;;;;;;;;;3.00;99.90;;;;;;4989857;28;20045;-80
2021/12/24 05:15:11;;;;;;;;;;;3.00;99.90;;;;;;4981666;28;19926;-79
2021/12/24 05:18:07;;;;;;;;;;;3.00;99.90;;;;;;4995421;28;19960;-79
2021/12/24 05:23:38;;;;;;;;;;;3.00;99.90;;;;;;5005053;28;20296;-80
2021/12/24 05:26:05;;;;;;;;;;;3.00;99.90;;;;;;5006046;28;19926;-79
2021/12/24 05:28:34;;;;;;;;;;;3.00;99.90;;;;;;4982752;28;20044;-79
2021/12/24 05:31:01;;;;;;;;;;;3.00;99.90;;;;;;5004043;28;19978;-80
2021/12/24 05:33:28;;;;;;;;;;;3.00;99.90;;;;;;4982812;28;19973;-80
2021/12/24 05:35:56;;;;;;;;;;;3.00;99.90;;;;;;4985154;28;20024;-80
2021/12/24 05:38:23;;;;;;;;;;;3.00;99.90;;;;;;4986511;28;19976;-80
2021/12/24 05:40:51;;;;;;;;;;;3.00;99.90;;;;;;4978244;28;19926;-80
2021/12/24 05:43:18;;;;;;;;;;;3.00;99.90;;;;;;4997965;28;19926;-80
2021/12/24 05:45:45;;;;;;;;;;;3.00;99.90;;;;;;4988792;28;20053;-80
2021/12/24 05:48:36;;;;;;;;;;;3.00;99.90;;;;;;4995873;28;20343;-79
2021/12/24 05:51:10;;;;;;;;;;;3.00;99.90;;;;;;4983888;28;19925;-80
2021/12/24 05:54:00;;;;;;;;;;;3.00;99.90;;;;;;5009921;28;19956;-79
2021/12/24 05:56:33;;;;;;;;;;;3.00;99.90;;;;;;4984799;28;19975;-79
2021/12/24 05:59:12;;;;;;;;;;;3.00;99.90;;;;;;5000509;28;19929;-81
2021/12/24 06:01:39;;;;;;;;;;;3.00;99.90;;;;;;4999315;28;19930;-79
2021/12/24 06:04:06;;;;;;;;;;;3.10;99.90;;;;;;5012951;28;20347;-80
2021/12/24 06:06:35;;;;;;;;;;;3.00;99.90;;;;;;4986000;28;20005;-79
2021/12/24 06:09:02;;;;;;;;;;;3.10;99.90;;;;;;4994820;28;19932;-80
2021/12/24 06:11:29;;;;;;;;;;;3.00;99.90;;;;;;5007729;28;19976;-80
2021/12/24 06:13:56;;;;;;;;;;;3.00;99.90;;;;;;4992000;28;19926;-79
2021/12/24 06:16:23;;;;;;;;;;;3.00;99.90;;;;;;5004368;28;19960;-79
2021/12/24 06:18:50;;;;;;;;;;;3.00;99.90;;;;;;5007627;28;19925;-80
2021/12/24 06:21:17;;;;;;;;;;;3.00;99.90;;;;;;5007160;28;19925;-80
2021/12/24 06:23:47;;;;;;;;;;;3.00;99.90;;;;;;4990484;28;19969;-79
2021/12/24 06:26:14;;;;;;;;;;;3.00;99.90;;;;;;4988126;28;19960;-79
2021/12/24 06:28:41;;;;;;;;;;;3.00;99.90;;;;;;4999311;28;19925;-80
2021/12/24 06:31:08;;;;;;;;;;;3.00;99.90;;;;;;4985183;28;19929;-80
2021/12/24 06:33:35;;;;;;;;;;;3.00;99.90;;;;;;4991334;28;20288;-80
2021/12/24 06:36:02;;;;;;;;;;;3.00;99.90;;;;;;5004454;28;19925;-79
2021/12/24 06:38:29;;;;;;;;;;;3.00;99.90;;;;;;5007144;28;20310;-79
2021/12/24 06:40:57;;;;;;;;;;;3.00;99.90;;;;;;4994955;28;19926;-79
2021/12/24 06:43:24;;;;;;;;;;;3.00;99.90;;;;;;4992098;28;19933;-79
2021/12/24 06:45:51;;;;;;;;;;;3.00;99.90;;;;;;5013885;28;19972;-79
2021/12/24 06:48:18;;;;;;;;;;;3.00;99.90;;;;;;5007285;28;20010;-80
2021/12/24 06:50:45;;;;;;;;;;;3.00;99.90;;;;;;4988291;28;19925;-79
2021/12/24 06:53:12;;;;;;;;;;;3.00;99.90;;;;;;5000621;28;20395;-79
2021/12/24 06:55:40;;;;;;;;;;;3.00;99.90;;;;;;4993448;28;19936;-79
2021/12/24 06:58:12;;;;;;;;;;;3.10;99.90;;;;;;4996902;28;20656;-79
2021/12/24 07:00:39;;;;;;;;;;;3.10;99.90;;;;;;4984837;28;19980;-80
2021/12/24 07:03:09;;;;;;;;;;;3.10;99.90;;;;;;4988835;28;19941;-79
2021/12/24 07:05:35;;;;;;;;;;;3.10;99.90;;;;;;4983231;28;19965;-79
2021/12/24 07:08:03;;;;;;;;;;;3.10;99.90;;;;;;4989824;28;20802;-79
2021/12/24 07:10:30;;;;;;;;;;;3.10;99.90;;;;;;4989164;28;19957;-79
2021/12/24 07:12:58;;;;;;;;;;;3.10;99.90;;;;;;5000312;28;19980;-79
2021/12/24 07:15:26;;;;;;;;;;;3.10;99.90;;;;;;4997318;28;19964;-80
2021/12/24 07:17:53;;;;;;;;;;;3.10;99.90;;;;;;4999872;28;20012;-79
2021/12/24 07:20:20;;;;;;;;;;;3.10;99.90;;;;;;5002666;28;19934;-79
2021/12/24 07:22:47;;;;;;;;;;;3.10;99.90;;;;;;4997960;28;19933;-79
2021/12/24 07:25:14;;;;;;;;;;;3.10;99.90;;;;;;4987276;28;19929;-79
2021/12/24 07:27:41;;;;;;;;;;;3.10;99.90;;;;;;4994589;28;19925;-79
2021/12/24 07:30:11;;;;;;;;;;;3.10;99.90;;;;;;4982084;28;20273;-79
2021/12/24 07:32:40;;;;;;;;;;;3.10;99.90;;;;;;4987145;28;19925;-79
2021/12/24 07:35:07;;;;;;;;;;;3.10;99.90;;;;;;4984713;28;19931;-80
2021/12/24 07:37:34;;;;;;;;;;;3.10;99.90;;;;;;4987992;28;19933;-79
2021/12/24 07:40:02;;;;;;;;;;;3.10;99.90;;;;;;5001043;28;20017;-80
2021/12/24 07:42:30;;;;;;;;;;;3.10;99.90;;;;;;5008654;28;19929;-79
2021/12/24 07:44:57;;;;;;;;;;;3.10;99.90;;;;;;4986932;28;19933;-80
2021/12/24 07:47:39;;;;;;;;;;;3.10;99.90;;;;;;4996570;28;19925;-79
2021/12/24 07:51:54;;;;;;;;;;;3.20;99.90;;;;;;5004863;28;20008;-78
2021/12/24 07:53:04;;;;;;;;;;;3.20;99.90;;;;;;5003305;28;19933;-79
2021/12/24 07:55:31;;;;;;;;;;;3.20;99.90;;;;;;5005990;28;19929;-80
2021/12/24 07:57:58;;;;;;;;;;;3.20;99.90;;;;;;5008304;28;20310;-79
2021/12/24 08:00:27;;;;;;;;;;;3.20;99.90;;;;;;4984329;28;19936;-79
2021/12/24 08:02:54;;;;;;;;;;;3.20;99.90;;;;;;4981173;28;21435;-78
2021/12/24 08:05:25;;;;;;;;;;;3.20;99.90;;;;;;5006787;28;19926;-79
2021/12/24 08:07:53;;;;;;;;;;;3.20;99.90;;;;;;4985194;28;19926;-79
2021/12/24 08:10:20;;;;;;;;;;;3.20;99.90;;;;;;4988329;28;20067;-79
2021/12/24 08:12:49;;;;;;;;;;;3.20;99.90;;;;;;4981290;28;19936;-79
2021/12/24 08:15:17;;;;;;;;;;;3.20;99.90;;;;;;5002663;28;20425;-79
2021/12/24 08:17:44;;;;;;;;;;;3.20;99.90;;;;;;5000948;28;19932;-78
2021/12/24 08:20:12;;;;;;;;;;;3.20;99.90;;;;;;4991012;28;20346;-79
2021/12/24 08:22:40;;;;;;;;;;;3.20;99.90;;;;;;4984923;28;19933;-79
2021/12/24 08:25:09;;;;;;;;;;;3.20;99.90;;;;;;4989888;28;19979;-78
2021/12/24 08:27:38;;;;;;;;;;;3.20;99.90;;;;;;5005749;28;19955;-79
2021/12/24 08:30:06;;;;;;;;;;;3.20;99.90;;;;;;5002699;28;19984;-78
2021/12/24 08:32:38;;;;;;;;;;;3.20;99.90;;;;;;4987446;28;19925;-79
2021/12/24 08:35:05;;;;;;;;;;;3.20;99.90;;;;;;5000687;28;19926;-79
2021/12/24 08:37:32;;;;;;;;;;;3.20;99.90;;;;;;4986932;28;20303;-80
2021/12/24 08:40:01;;;;;;;;;;;3.20;99.90;;;;;;4990215;28;19925;-80
2021/12/24 08:42:28;;;;;;;;;;;3.20;99.90;;;;;;4995139;28;19932;-78
2021/12/24 08:44:55;;;;;;;;;;;3.20;99.90;;;;;;5002741;28;19926;-78
2021/12/24 08:47:22;;;;;;;;;;;3.20;99.90;;;;;;4986607;28;20307;-80
2021/12/24 08:49:49;;;;;;;;;;;3.20;99.90;;;;;;5006743;28;19934;-79
2021/12/24 08:52:16;;;;;;;;;;;3.20;99.90;;;;;;4998038;28;22177;-78
2021/12/24 08:54:43;;;;;;;;;;;3.20;99.90;;;;;;4989415;28;19932;-79
2021/12/24 08:57:11;;;;;;;;;;;3.20;99.90;;;;;;5009095;28;20017;-79
2021/12/24 08:59:38;;;;;;;;;;;3.20;99.90;;;;;;5005291;28;19940;-79
2021/12/24 09:02:05;;;;;;;;;;;3.20;99.90;;;;;;4988026;28;19932;-79
2021/12/24 09:04:32;;;;;;;;;;;3.20;99.90;;;;;;4984373;28;19925;-78
2021/12/24 09:06:59;;;;;;;;;;;3.20;99.90;;;;;;5001852;28;19930;-78
2021/12/24 09:09:27;;;;;;;;;;;3.20;99.90;;;;;;4986494;28;19968;-80
2021/12/24 09:11:54;;;;;;;;;;;3.20;99.90;;;;;;5006434;28;20016;-79
2021/12/24 09:14:28;;;;;;;;;;;3.20;99.90;;;;;;5001382;28;19929;-78
2021/12/24 09:17:00;;;;;;;;;;;3.30;99.90;;;;;;5002387;28;19956;-79
2021/12/24 09:19:31;;;;;;;;;;;3.20;99.90;;;;;;5003649;28;19987;-79
2021/12/24 09:21:58;;;;;;;;;;;3.30;99.90;;;;;;5003655;28;20351;-80
2021/12/24 09:24:26;;;;;;;;;;;3.30;99.90;;;;;;5007330;28;19941;-80
2021/12/24 09:26:57;;;;;;;;;;;3.30;99.90;;;;;;5003309;28;19956;-80
2021/12/24 09:29:25;;;;;;;;;;;3.30;99.90;;;;;;4998754;28;19929;-80
2021/12/24 09:31:53;;;;;;;;;;;3.30;99.90;;;;;;4989985;28;19961;-79
2021/12/24 09:34:20;;;;;;;;;;;3.30;99.90;;;;;;4989229;28;19929;-80
2021/12/24 09:36:47;;;;;;;;;;;3.30;99.90;;;;;;4986399;28;19945;-80
2021/12/24 09:39:14;;;;;;;;;;;3.30;99.90;;;;;;4983135;28;19934;-81
2021/12/24 09:41:41;;;;;;;;;;;3.30;99.90;;;;;;5002938;28;19925;-80
2021/12/24 09:44:08;;;;;;;;;;;3.30;99.90;;;;;;4985113;28;19929;-81
2021/12/24 09:46:40;;;;;;;;;;;3.30;99.90;;;;;;5005970;28;19937;-79
2021/12/24 09:49:07;;;;;;;;;;;3.30;99.90;;;;;;5000961;28;20497;-79
2021/12/24 09:51:37;;;;;;;;;;;3.30;99.90;;;;;;5000548;28;19961;-79
2021/12/24 09:54:08;;;;;;;;;;;3.30;99.90;;;;;;5002940;28;19959;-79
2021/12/24 09:56:35;;;;;;;;;;;3.30;99.90;;;;;;4986779;28;20440;-79
2021/12/24 09:59:03;;;;;;;;;;;3.30;99.90;;;;;;4999440;28;19933;-79
2021/12/24 10:01:31;;;;;;;;;;;3.30;99.90;;;;;;4983106;28;19996;-78
2021/12/24 10:04:05;;;;;;;;;;;3.40;99.90;;;;;;5004466;28;19940;-80
2021/12/24 10:06:32;;;;;;;;;;;3.40;99.90;;;;;;4983794;28;20741;-78
2021/12/24 10:09:00;;;;;;;;;;;3.40;99.90;;;;;;4989554;28;20719;-79
2021/12/24 10:11:29;;;;;;;;;;;3.40;99.90;;;;;;5004871;28;19925;-79
2021/12/24 10:14:03;;;;;;;;;;;3.50;99.90;;;;;;5006142;28;19931;-78
2021/12/24 10:16:30;;;;;;;;;;;3.50;99.90;;;;;;5008007;28;19948;-79
2021/12/24 10:19:00;;;;;;;;;;;3.50;99.90;;;;;;4985535;28;19932;-78
2021/12/24 10:21:29;;;;;;;;;;;3.50;99.90;;;;;;4996590;28;20359;-79
2021/12/24 10:23:57;;;;;;;;;;;3.50;99.90;;;;;;4999799;28;20319;-79
2021/12/24 10:26:25;;;;;;;;;;;3.50;99.90;;;;;;4988220;28;19925;-79
2021/12/24 10:28:55;;;;;;;;;;;3.50;99.90;;;;;;4981011;28;19929;-79
2021/12/24 10:31:23;;;;;;;;;;;3.40;99.90;;;;;;5002947;28;19933;-79
2021/12/24 10:34:04;;;;;;;;;;;3.40;99.90;;;;;;5005271;28;20426;-79
2021/12/24 10:36:33;;;;;;;;;;;3.40;99.90;;;;;;4987880;28;19930;-79
2021/12/24 10:39:00;;;;;;;;;;;3.40;99.90;;;;;;5001807;28;19936;-79
2021/12/24 10:41:29;;;;;;;;;;;3.40;99.90;;;;;;4986186;28;20454;-79
2021/12/24 10:43:56;;;;;;;;;;;3.40;99.90;;;;;;4998366;28;19926;-79
2021/12/24 10:46:23;;;;;;;;;;;3.50;99.90;;;;;;4986184;28;19940;-79
2021/12/24 10:49:03;;;;;;;;;;;3.50;99.90;;;;;;4987945;28;19925;-79
2021/12/24 10:51:54;;;;;;;;;;;3.50;99.90;;;;;;5002420;28;19949;-78
2021/12/24 10:54:22;;;;;;;;;;;3.40;99.90;;;;;;4982373;28;19929;-78
2021/12/24 10:56:49;;;;;;;;;;;3.40;99.90;;;;;;5000274;28;19942;-78
2021/12/24 10:59:16;;;;;;;;;;;3.40;99.90;;;;;;4980734;28;20437;-78
2021/12/24 11:01:43;;;;;;;;;;;3.40;99.90;;;;;;4980137;28;19925;-79
2021/12/24 11:04:10;;;;;;;;;;;3.50;99.90;;;;;;4974199;28;19925;-79
2021/12/24 11:06:37;;;;;;;;;;;3.50;99.90;;;;;;4979979;28;19992;-79
2021/12/24 11:09:06;;;;;;;;;;;3.50;99.90;;;;;;4983449;28;19930;-80
2021/12/24 11:11:38;;;;;;;;;;;3.50;99.90;;;;;;4982419;28;20387;-79
2021/12/24 11:14:05;;;;;;;;;;;3.50;99.90;;;;;;4983072;28;20352;-80
2021/12/24 11:16:33;;;;;;;;;;;3.60;99.90;;;;;;4997088;28;19926;-79
2021/12/24 11:19:01;;;;;;;;;;;3.60;99.90;;;;;;5002115;28;19930;-79
2021/12/24 11:21:28;;;;;;;;;;;3.60;99.90;;;;;;5001406;28;19929;-79
2021/12/24 11:23:57;;;;;;;;;;;3.60;99.90;;;;;;4986556;28;20451;-79
2021/12/24 11:26:25;;;;;;;;;;;3.60;99.90;;;;;;4985089;28;20328;-80
2021/12/24 11:28:54;;;;;;;;;;;3.60;99.90;;;;;;5002513;28;20388;-79
2021/12/24 11:31:21;;;;;;;;;;;3.60;99.90;;;;;;4988482;28;20280;-78
2021/12/24 11:33:51;;;;;;;;;;;3.60;99.90;;;;;;4983947;28;20656;-78
2021/12/24 11:36:19;;;;;;;;;;;3.60;99.90;;;;;;5003522;28;19933;-77
2021/12/24 11:38:47;;;;;;;;;;;3.60;99.90;;;;;;5002911;28;19930;-77
2021/12/24 11:41:17;;;;;;;;;;;3.60;99.90;;;;;;5001698;28;20391;-78
2021/12/24 11:43:45;;;;;;;;;;;3.60;99.90;;;;;;5003378;28;19933;-78
2021/12/24 11:46:19;;;;;;;;;;;3.60;99.90;;;;;;4983473;28;20450;-78
2021/12/24 11:48:47;;;;;;;;;;;3.60;99.90;;;;;;4986136;28;19925;-78
2021/12/24 11:51:17;;;;;;;;;;;3.60;99.90;;;;;;4988958;28;20020;-77
2021/12/24 11:53:45;;;;;;;;;;;3.60;99.90;;;;;;4979870;28;19926;-77
2021/12/24 11:56:13;;;;;;;;;;;3.60;99.90;;;;;;4999867;28;19940;-78
2021/12/24 11:58:49;;;;;;;;;;;3.70;99.90;;;;;;4977802;28;19934;-78
2021/12/24 12:01:20;;;;;;;;;;;3.70;99.90;;;;;;5002976;28;19925;-78
2021/12/24 12:03:49;;;;;;;;;;;3.70;99.90;;;;;;4988447;28;19926;-79
2021/12/24 12:06:32;;;;;;;;;;;3.70;99.90;;;;;;4985236;28;19925;-79
2021/12/24 12:09:00;;;;;;;;;;;3.60;99.90;;;;;;5003989;28;20462;-78
2021/12/24 12:11:27;;;;;;;;;;;3.70;99.90;;;;;;4999207;28;20020;-78
2021/12/24 12:13:57;;;;;;;;;;;3.70;99.90;;;;;;5002088;28;19925;-79
2021/12/24 12:16:26;;;;;;;;;;;3.70;99.90;;;;;;4987455;28;19933;-78
2021/12/24 12:19:11;;;;;;;;;;;3.60;99.90;;;;;;4986937;28;19929;-79
2021/12/24 12:21:43;;;;;;;;;;;3.70;99.90;;;;;;4999319;28;19960;-79
2021/12/24 12:27:02;;;;;;;;;;;3.70;99.90;;;;;;5004854;28;19933;-79
2021/12/24 12:29:30;;;;;;;;;;;3.70;99.90;;;;;;4987151;28;19925;-80
2021/12/24 12:32:04;;;;;;;;;;;3.70;99.90;;;;;;5002780;28;19932;-78
2021/12/24 12:34:51;;;;;;;;;;;3.70;99.90;;;;;;5004262;28;19937;-79
2021/12/24 12:37:20;;;;;;;;;;;3.70;99.90;;;;;;4983242;28;19932;-79
2021/12/24 12:39:50;;;;;;;;;;;3.70;99.90;;;;;;5007196;28;19933;-80
2021/12/24 12:42:19;;;;;;;;;;;3.70;99.90;;;;;;5005838;28;19973;-79
2021/12/24 12:44:48;;;;;;;;;;;3.70;99.90;;;;;;5003143;28;19925;-79
2021/12/24 12:47:17;;;;;;;;;;;3.70;99.90;;;;;;5005075;28;19933;-79
2021/12/24 12:49:45;;;;;;;;;;;3.70;99.90;;;;;;5006213;28;19955;-78
2021/12/24 12:52:20;;;;;;;;;;;3.70;99.90;;;;;;4975864;28;19972;-78
2021/12/24 12:54:49;;;;;;;;;;;3.70;99.90;;;;;;4983405;28;19928;-79
2021/12/24 12:57:23;;;;;;;;;;;3.70;99.90;;;;;;4995598;28;21301;-79
2021/12/24 13:00:10;;;;;;;;;;;3.70;99.90;;;;;;5001968;28;20403;-79
2021/12/24 13:02:55;;;;;;;;;;;3.70;99.90;;;;;;4985616;28;20364;-80
2021/12/24 13:05:24;;;;;;;;;;;3.70;99.90;;;;;;4994611;28;19926;-79
2021/12/24 13:07:51;;;;;;;;;;;3.70;99.90;;;;;;4981633;28;19929;-79
2021/12/24 13:10:18;;;;;;;;;;;3.70;99.90;;;;;;4984471;28;20299;-79
2021/12/24 13:12:45;;;;;;;;;;;3.80;99.90;;;;;;5002746;28;19926;-78
2021/12/24 13:15:16;;;;;;;;;;;3.80;99.90;;;;;;4983801;28;19929;-79
2021/12/24 13:17:45;;;;;;;;;;;3.80;99.90;;;;;;5005116;28;20370;-78
2021/12/24 13:20:17;;;;;;;;;;;3.80;99.90;;;;;;5002565;28;19940;-79
2021/12/24 13:22:45;;;;;;;;;;;3.80;99.90;;;;;;4983133;28;19971;-79
2021/12/24 13:25:14;;;;;;;;;;;3.80;99.90;;;;;;4988497;28;19929;-78
2021/12/24 13:27:44;;;;;;;;;;;3.80;99.90;;;;;;4994413;28;19999;-78
2021/12/24 13:30:13;;;;;;;;;;;3.80;99.90;;;;;;4986141;28;19953;-78
2021/12/24 13:32:41;;;;;;;;;;;3.80;99.90;;;;;;5002362;28;20433;-78
2021/12/24 13:35:09;;;;;;;;;;;3.80;99.90;;;;;;5006013;28;20458;-78
2021/12/24 13:37:38;;;;;;;;;;;3.80;99.90;;;;;;5007767;28;20912;-79
2021/12/24 13:40:10;;;;;;;;;;;3.80;99.90;;;;;;4988945;28;19976;-79
2021/12/24 13:42:44;;;;;;;;;;;3.80;99.90;;;;;;5005068;28;19926;-79
2021/12/24 13:45:11;;;;;;;;;;;3.90;99.90;;;;;;5000132;28;19944;-79
2021/12/24 13:47:55;;;;;;;;;;;3.80;99.90;;;;;;4986210;28;19925;-78
2021/12/24 13:56:19;;;;;;;;;;;3.90;99.90;;;;;;5003019;28;20028;-80
2021/12/24 13:58:49;;;;;;;;;;;3.90;99.90;;;;;;4979051;28;19972;-79
2021/12/24 14:01:16;;;;;;;;;;;3.90;99.90;;;;;;4980902;28;19936;-79
2021/12/24 14:03:43;;;;;;;;;;;3.90;99.90;;;;;;4995526;28;20031;-78
2021/12/24 14:06:11;;;;;;;;;;;3.90;99.90;;;;;;4983272;28;19953;-78
2021/12/24 14:08:38;;;;;;;;;;;3.90;99.90;;;;;;4980165;28;19957;-79
2021/12/24 14:11:09;;;;;;;;;;;3.90;99.90;;;;;;5002320;28;19925;-79
2021/12/24 14:13:41;;;;;;;;;;;3.90;99.90;;;;;;5003999;28;20024;-80
2021/12/24 14:16:18;;;;;;;;;;;3.90;99.90;;;;;;4979916;28;19926;-78
2021/12/24 14:18:50;;;;;;;;;;;3.90;99.90;;;;;;4999675;28;19932;-80
2021/12/24 14:24:11;;;;;;;;;;;3.90;99.90;;;;;;4998588;28;19922;-80
2021/12/24 14:26:38;;;;;;;;;;;3.90;99.90;;;;;;5001473;28;19925;-80
2021/12/24 14:29:07;;;;;;;;;;;3.90;99.90;;;;;;5007286;28;19952;-79
2021/12/24 14:31:47;;;;;;;;;;;3.90;99.90;;;;;;4998060;28;20564;-79
2021/12/24 14:34:27;;;;;;;;;;;3.90;99.90;;;;;;5003669;28;19929;-79
2021/12/24 14:36:58;;;;;;;;;;;3.90;99.90;;;;;;4996958;28;20104;-79
2021/12/24 14:39:25;;;;;;;;;;;3.90;99.90;;;;;;5004442;28;19925;-79
2021/12/24 14:42:07;;;;;;;;;;;3.90;99.90;;;;;;4995672;28;19934;-79
2021/12/24 14:44:35;;;;;;;;;;;3.90;99.90;;;;;;4993585;28;19978;-80
2021/12/24 14:47:02;;;;;;;;;;;3.90;99.90;;;;;;4999652;28;20032;-80
2021/12/24 14:49:41;;;;;;;;;;;3.90;99.90;;;;;;4996461;28;19925;-79
2021/12/24 14:52:15;;;;;;;;;;;3.90;99.90;;;;;;4977733;28;19932;-78
2021/12/24 14:55:01;;;;;;;;;;;3.90;99.90;;;;;;4985707;28;19933;-79
2021/12/24 14:57:28;;;;;;;;;;;3.90;99.90;;;;;;4995046;28;19932;-79
2021/12/24 15:00:16;;;;;;;;;;;3.90;99.90;;;;;;5002077;28;20491;-79
2021/12/24 15:02:48;;;;;;;;;;;3.90;99.90;;;;;;4978187;28;19953;-78
2021/12/24 15:05:28;;;;;;;;;;;3.90;99.90;;;;;;4987145;28;19929;-79
2021/12/24 15:07:56;;;;;;;;;;;3.90;99.90;;;;;;4997062;28;19948;-79
2021/12/24 15:10:23;;;;;;;;;;;3.90;99.90;;;;;;5105828;22;20404;-80
2021/12/24 15:12:59;;;;;;;;;;;3.90;99.90;;;;;;5049681;28;19979;-80
2021/12/24 15:15:26;;;;;;;;;;;3.90;99.90;;;;;;5043394;28;19960;-80
2021/12/24 15:17:55;;;;;;;;;;;3.90;99.90;;;;;;5045195;28;19935;-79
2021/12/24 15:20:22;;;;;;;;;;;3.90;99.90;;;;;;5044639;28;19951;-79
2021/12/24 15:22:52;;;;;;;;;;;3.90;99.90;;;;;;5034640;28;19925;-80
2021/12/24 15:25:19;;;;;;;;;;;3.90;99.90;;;;;;5037930;28;19933;-80
2021/12/24 15:27:47;;;;;;;;;;;3.90;99.90;;;;;;5038389;28;19956;-79
2021/12/24 15:30:17;;;;;;;;;;;3.90;99.90;;;;;;5035731;28;20417;-78
2021/12/24 15:32:44;;;;;;;;;;;3.90;99.90;;;;;;5041929;28;20302;-80
2021/12/24 15:35:13;;;;;;;;;;;3.80;99.90;;;;;;5023187;28;19943;-80
2021/12/24 15:37:41;;;;;;;;;;;3.80;99.90;;;;;;5037444;28;20409;-80
2021/12/24 15:40:11;;;;;;;;;;;3.90;99.90;;;;;;5039983;28;19979;-79
2021/12/24 15:42:38;;;;;;;;;;;3.80;99.90;;;;;;5040072;28;20023;-79
2021/12/24 15:45:08;;;;;;;;;;;3.80;99.90;;;;;;5025785;28;20002;-78
2021/12/24 15:47:50;;;;;;;;;;;3.80;99.90;;;;;;5035871;28;19960;-79
2021/12/24 15:50:21;;;;;;;;;;;3.80;99.90;;;;;;5025223;28;19948;-79
2021/12/24 15:52:49;;;;;;;;;;;3.80;99.90;;;;;;5035473;28;19980;-79
2021/12/24 15:55:16;;;;;;;;;;;3.80;99.90;;;;;;5040116;28;19962;-79
2021/12/24 15:57:45;;;;;;;;;;;3.80;99.90;;;;;;5044789;28;19925;-79
2021/12/24 16:00:13;;;;;;;;;;;3.80;99.90;;;;;;5038830;28;19929;-79
2021/12/24 16:02:40;;;;;;;;;;;3.80;99.90;;;;;;5046071;28;20308;-80
2021/12/24 16:05:12;;;;;;;;;;;3.80;99.90;;;;;;5041971;28;20486;-79
2021/12/24 16:07:44;;;;;;;;;;;3.80;99.90;;;;;;5046357;28;19947;-80
2021/12/24 16:10:12;;;;;;;;;;;3.80;99.90;;;;;;5044043;28;19933;-80
2021/12/24 16:12:43;;;;;;;;;;;3.80;99.90;;;;;;5047623;28;19982;-80
2021/12/24 16:15:13;;;;;;;;;;;3.80;99.90;;;;;;5027433;28;19925;-80
2021/12/24 16:17:43;;;;;;;;;;;3.80;99.90;;;;;;5042735;28;19924;-79